Terminal Aerodrome Forecast
Issued by NWS

Home | Current Version | Previous Version | Graphics & Text | Print | Product List | Glossary On
Versions: 1 2 3 4 5 6 7 8 9 10 11 12 13 14 15 16 17 18 19 20 21
447
FTUS43 KTOP 280520
TAFMHK
TAF
KMHK 280520Z 2806/2906 08012KT 6SM SHRA VCTS SCT015 OVC060CB
     FM280900 09011KT 6SM SHRA VCTS BKN015 OVC030CB
     FM281100 11011KT P6SM VCSH OVC008
     FM281600 17006KT P6SM OVC015
     FM282000 VRB05KT P6SM BKN035
     FM282300 02009KT P6SM OVC015=

USA.gov is the U.S. government's official web portal to all federal, state and local government web resources and services.